createdAt,value
2019-04-04T00:00:56.914Z,0.08
2019-04-04T00:01:56.866Z,0.13
2019-04-04T00:02:56.856Z,0.13
2019-04-04T00:03:56.841Z,0.20
2019-04-04T00:04:57.891Z,0.14
2019-04-04T00:05:57.122Z,0.14
2019-04-04T00:06:58.109Z,0.11
2019-04-04T00:07:58.124Z,0.13
2019-04-04T00:08:56.785Z,-0.04
2019-04-04T00:09:56.779Z,-0.08
2019-04-04T00:10:56.764Z,0.04
2019-04-04T00:11:56.761Z,-0.03
2019-04-04T00:12:56.785Z,-0.14
2019-04-04T00:13:56.743Z,-0.10
2019-04-04T00:15:07.078Z,-0.04
2019-04-04T00:15:56.713Z,-0.04
2019-04-04T00:16:56.699Z,-0.03
2019-04-04T00:17:56.701Z,-0.04
2019-04-04T00:18:58.494Z,-0.05
2019-04-04T00:19:56.672Z,-0.03
2019-04-04T00:20:56.661Z,0.04
2019-04-04T00:21:56.650Z,0.02
2019-04-04T00:22:56.648Z,-0.05
2019-04-04T00:23:56.628Z,-0.10
2019-04-04T00:24:56.630Z,-0.11
2019-04-04T00:25:56.613Z,-0.26
2019-04-04T00:26:56.597Z,-0.28
2019-04-04T00:27:56.594Z,-0.40
2019-04-04T00:28:56.585Z,-0.43
2019-04-04T00:29:56.604Z,-0.44
2019-04-04T00:30:56.559Z,-0.49
2019-04-04T00:31:56.542Z,-0.54
2019-04-04T00:32:56.538Z,-0.65
2019-04-04T00:33:56.532Z,-0.72
2019-04-04T00:34:57.873Z,-0.62
2019-04-04T00:35:56.513Z,-0.79
2019-04-04T00:36:56.535Z,-0.78
2019-04-04T00:37:56.487Z,-0.92
2019-04-04T00:38:56.471Z,-0.98
2019-04-04T00:39:56.470Z,-1.02
2019-04-04T00:40:56.454Z,-0.97
2019-04-04T00:41:56.438Z,-1.01
2019-04-04T00:42:56.464Z,-1.02
2019-04-04T00:43:56.420Z,-1.15
2019-04-04T00:44:56.405Z,-1.10
2019-04-04T00:46:06.715Z,-1.17
2019-04-04T00:46:56.388Z,-1.19
2019-04-04T00:47:56.421Z,-1.27
2019-04-04T00:48:56.372Z,-1.27
2019-04-04T00:49:56.358Z,-1.34
2019-04-04T00:50:56.359Z,-1.31
2019-04-04T00:51:56.335Z,-1.37
2019-04-04T00:52:56.372Z,-1.41
2019-04-04T00:53:56.321Z,-1.43
2019-04-04T00:54:56.310Z,-1.48
2019-04-04T00:55:56.294Z,-1.48
2019-04-04T00:56:56.283Z,-1.58
2019-04-04T00:57:56.346Z,-1.56
2019-04-04T00:58:56.270Z,-1.56
2019-04-04T00:59:56.255Z,-1.66
2019-04-04T01:00:56.246Z,-1.69
2019-04-04T01:01:56.994Z,-1.67
2019-04-04T01:02:58.339Z,-1.70
2019-04-04T01:03:56.251Z,-1.70
2019-04-04T01:04:56.199Z,-1.59
2019-04-04T01:05:56.194Z,-1.66
2019-04-04T01:06:56.178Z,-1.59
2019-04-04T01:07:56.169Z,-1.49
2019-04-04T01:08:56.166Z,-1.33
2019-04-04T01:09:56.166Z,-1.33
2019-04-04T01:10:56.185Z,-1.22
2019-04-04T01:11:56.130Z,-1.22
2019-04-04T01:12:56.115Z,-1.10
2019-04-04T01:13:57.820Z,-1.17
2019-04-04T01:14:56.096Z,-1.16
2019-04-04T01:15:56.096Z,-1.17
2019-04-04T01:17:06.419Z,-1.16
2019-04-04T01:17:56.065Z,-1.22
2019-04-04T01:18:56.068Z,-1.15
2019-04-04T01:19:56.081Z,-1.15
2019-04-04T01:20:56.036Z,-1.17
2019-04-04T01:21:56.023Z,-1.19
2019-04-04T01:22:56.644Z,-1.28
2019-04-04T01:23:58.121Z,-1.25
2019-04-04T01:24:55.989Z,-1.30
2019-04-04T01:25:56.031Z,-1.35
2019-04-04T01:26:55.982Z,-1.34
2019-04-04T01:27:55.960Z,-1.37
2019-04-04T01:28:55.948Z,-1.38
2019-04-04T01:29:55.938Z,-1.35
2019-04-04T01:30:55.927Z,-1.45
2019-04-04T01:31:55.940Z,-1.51
2019-04-04T01:32:55.910Z,-1.54
2019-04-04T01:33:55.896Z,-1.67
2019-04-04T01:34:55.890Z,-1.61
2019-04-04T01:35:55.876Z,-1.64
2019-04-04T01:36:56.481Z,-1.74
2019-04-04T01:37:56.100Z,-1.77
2019-04-04T01:38:55.848Z,-1.80
2019-04-04T01:39:55.835Z,-1.82
2019-04-04T01:40:55.826Z,-1.87
2019-04-04T01:41:55.820Z,-1.90
2019-04-04T01:42:55.847Z,-2.00
2019-04-04T01:44:04.943Z,-2.09
2019-04-04T01:44:56.788Z,-2.02
2019-04-04T01:45:55.774Z,-2.05
2019-04-04T01:46:55.765Z,-2.05
2019-04-04T01:48:06.967Z,-1.98
2019-04-04T01:48:55.739Z,-2.05
2019-04-04T01:49:55.728Z,-1.92
2019-04-04T01:50:55.723Z,-1.90
2019-04-04T01:51:57.667Z,-1.90
2019-04-04T01:52:59.009Z,-1.97
2019-04-04T01:53:55.705Z,-1.98
2019-04-04T01:54:55.681Z,-1.97
2019-04-04T01:55:55.670Z,-1.94
2019-04-04T01:56:55.662Z,-1.91
2019-04-04T01:57:55.650Z,-1.91
2019-04-04T01:58:55.640Z,-1.90
2019-04-04T01:59:55.663Z,-1.88
2019-04-04T02:00:55.618Z,-1.92
2019-04-04T02:01:55.608Z,-1.92
2019-04-04T02:02:55.596Z,-1.98
2019-04-04T02:03:55.584Z,-1.88
2019-04-04T02:04:55.968Z,-1.82
2019-04-04T02:05:56.190Z,-1.84
2019-04-04T02:06:58.992Z,-1.87
2019-04-04T02:07:55.547Z,-1.92
2019-04-04T02:08:55.535Z,-1.91
2019-04-04T02:09:55.527Z,-1.76
2019-04-04T02:10:55.522Z,-1.54
2019-04-04T02:11:55.522Z,-1.48
2019-04-04T02:12:55.493Z,-1.34
2019-04-04T02:13:55.489Z,-1.40
2019-04-04T02:14:55.476Z,-1.37
2019-04-04T02:15:55.465Z,-1.43
2019-04-04T02:16:55.457Z,-1.62
2019-04-04T02:17:55.464Z,-1.70
2019-04-04T02:19:08.460Z,-1.80
2019-04-04T02:19:56.323Z,-1.88
2019-04-04T02:20:57.587Z,-1.80
2019-04-04T02:21:55.403Z,-1.95
2019-04-04T02:22:55.389Z,-1.91
2019-04-04T02:23:55.376Z,-1.98
2019-04-04T02:24:55.383Z,-2.12
2019-04-04T02:25:55.364Z,-2.12
2019-04-04T02:26:55.350Z,-2.16
2019-04-04T02:27:55.337Z,-2.16
2019-04-04T02:28:55.325Z,-2.16
2019-04-04T02:29:55.314Z,-1.98
2019-04-04T02:30:55.324Z,-1.98
2019-04-04T02:31:55.292Z,-1.91
2019-04-04T02:32:59.463Z,-1.94
2019-04-04T02:33:56.278Z,-1.92
2019-04-04T02:34:55.273Z,-1.90
2019-04-04T02:35:55.257Z,-1.73
2019-04-04T02:36:55.257Z,-1.73
2019-04-04T02:37:56.124Z,-1.73
2019-04-04T02:38:57.584Z,-1.67
2019-04-04T02:39:55.207Z,-1.69
2019-04-04T02:40:55.233Z,-1.74
2019-04-04T02:41:55.217Z,-1.80
2019-04-04T02:42:55.598Z,-1.88
2019-04-04T02:43:55.177Z,-1.92
2019-04-04T02:44:55.162Z,-1.90
2019-04-04T02:45:55.153Z,-2.05
2019-04-04T02:46:55.143Z,-2.05
2019-04-04T02:47:55.170Z,-2.18
2019-04-04T02:48:56.232Z,-2.15
2019-04-04T02:50:05.971Z,-2.24
2019-04-04T02:50:55.097Z,-2.23
2019-04-04T02:51:55.083Z,-2.26
2019-04-04T02:52:55.075Z,-2.24
2019-04-04T02:53:55.115Z,-2.32
2019-04-04T02:54:58.294Z,-2.27
2019-04-04T02:55:55.046Z,-2.34
2019-04-04T02:56:55.037Z,-2.30
2019-04-04T02:57:55.031Z,-2.24
2019-04-04T02:58:55.017Z,-2.35
2019-04-04T02:59:55.048Z,-2.30
2019-04-04T03:00:59.325Z,-2.26
2019-04-04T03:01:55.984Z,-2.29
2019-04-04T03:02:54.981Z,-2.30
2019-04-04T03:03:54.960Z,-2.24
2019-04-04T03:04:54.952Z,-2.30
2019-04-04T03:05:54.955Z,-2.20
2019-04-04T03:06:57.634Z,-2.16
2019-04-04T03:07:54.919Z,-2.15
2019-04-04T03:08:54.917Z,-2.12
2019-04-04T03:09:54.988Z,-2.06
2019-04-04T03:10:54.958Z,-1.91
2019-04-04T03:11:54.894Z,-1.91
2019-04-04T03:12:58.173Z,-1.98
2019-04-04T03:13:54.862Z,-2.03
2019-04-04T03:14:54.845Z,-2.00
2019-04-04T03:15:54.842Z,-2.15
2019-04-04T03:16:56.900Z,-2.12
2019-04-04T03:17:54.813Z,-2.18
2019-04-04T03:18:54.806Z,-2.15
2019-04-04T03:19:54.803Z,-2.10
2019-04-04T03:21:05.486Z,-2.09
2019-04-04T03:21:56.033Z,-2.18
2019-04-04T03:22:54.776Z,-2.29
2019-04-04T03:23:54.771Z,-2.13
2019-04-04T03:24:54.746Z,-2.29
2019-04-04T03:25:54.751Z,-2.15
2019-04-04T03:26:54.724Z,-2.16
2019-04-04T03:27:57.779Z,-2.15
2019-04-04T03:28:54.701Z,-2.15
2019-04-04T03:29:54.702Z,-2.06
2019-04-04T03:31:01.946Z,-2.06
2019-04-04T03:31:55.665Z,-1.88
2019-04-04T03:32:55.389Z,-1.90
2019-04-04T03:33:54.702Z,-1.87
2019-04-04T03:34:54.643Z,-1.90
2019-04-04T03:35:54.631Z,-1.85
2019-04-04T03:36:54.619Z,-1.82
2019-04-04T03:37:54.607Z,-1.92
2019-04-04T03:38:54.597Z,-1.95
2019-04-04T03:39:54.604Z,-1.98
2019-04-04T03:40:57.272Z,-2.03
2019-04-04T03:41:54.589Z,-1.92
2019-04-04T03:42:54.557Z,-2.05
2019-04-04T03:43:54.556Z,-1.92
2019-04-04T03:44:54.639Z,-1.91
2019-04-04T03:45:54.533Z,-1.85
2019-04-04T03:46:54.521Z,-1.87
2019-04-04T03:47:54.508Z,-1.82
2019-04-04T03:48:54.495Z,-1.82
2019-04-04T03:49:57.565Z,-1.85
2019-04-04T03:50:57.116Z,-1.80
2019-04-04T03:52:10.219Z,-1.72
2019-04-04T03:52:55.455Z,-1.80
2019-04-04T03:53:54.443Z,-1.66
2019-04-04T03:54:56.204Z,-1.70
2019-04-04T03:55:54.420Z,-1.73
2019-04-04T03:56:54.425Z,-1.74
2019-04-04T03:57:55.283Z,-1.70
2019-04-04T03:58:54.391Z,-1.66
2019-04-04T03:59:54.379Z,-1.70
2019-04-04T04:00:54.389Z,-1.62
2019-04-04T04:01:54.359Z,-1.72
2019-04-04T04:02:54.377Z,-1.77
2019-04-04T04:03:55.455Z,-1.73
2019-04-04T04:04:54.325Z,-1.74
2019-04-04T04:05:54.325Z,-1.64
2019-04-04T04:06:54.321Z,-1.56
2019-04-04T04:07:54.297Z,-1.55
2019-04-04T04:08:55.194Z,-1.35
2019-04-04T04:09:59.088Z,-1.20
2019-04-04T04:10:55.260Z,-1.16
2019-04-04T04:11:54.280Z,-1.15
2019-04-04T04:12:54.243Z,-0.98
2019-04-04T04:13:54.254Z,-0.89
2019-04-04T04:14:55.069Z,-0.86
2019-04-04T04:15:54.268Z,-0.80
2019-04-04T04:16:54.197Z,-0.70
2019-04-04T04:17:54.305Z,-0.58
2019-04-04T04:18:55.214Z,-0.55
2019-04-04T04:19:54.175Z,-0.47
2019-04-04T04:20:54.156Z,-0.44
2019-04-04T04:21:54.149Z,-0.46
2019-04-04T04:23:04.506Z,-0.51
2019-04-04T04:23:57.181Z,-0.52
2019-04-04T04:24:54.117Z,-0.40
2019-04-04T04:25:54.106Z,-0.36
2019-04-04T04:26:54.102Z,-0.34
2019-04-04T04:27:54.090Z,-0.26
2019-04-04T04:28:54.077Z,-0.21
2019-04-04T04:29:54.116Z,-0.10
2019-04-04T04:30:54.065Z,-0.08
2019-04-04T04:31:54.064Z,-0.03
2019-04-04T04:32:57.020Z,-0.04
2019-04-04T04:33:54.027Z,0.11
2019-04-04T04:34:54.019Z,0.15
2019-04-04T04:35:54.064Z,0.20
2019-04-04T04:36:53.990Z,0.23
2019-04-04T04:37:54.105Z,0.36
2019-04-04T04:38:58.932Z,0.35
2019-04-04T04:39:54.959Z,0.38
2019-04-04T04:40:53.953Z,0.36
2019-04-04T04:41:54.468Z,0.53
2019-04-04T04:42:53.950Z,0.51
2019-04-04T04:43:53.924Z,0.50
2019-04-04T04:44:53.907Z,0.60
2019-04-04T04:45:53.911Z,0.49
2019-04-04T04:46:53.922Z,0.58
2019-04-04T04:47:57.052Z,0.70
2019-04-04T04:48:53.866Z,0.69
2019-04-04T04:49:55.371Z,0.69
2019-04-04T04:50:53.846Z,0.69
2019-04-04T04:51:53.837Z,0.72
2019-04-04T04:52:53.866Z,0.66
2019-04-04T04:54:03.824Z,0.58
2019-04-04T04:54:54.710Z,0.58
2019-04-04T04:55:53.791Z,0.58
2019-04-04T04:56:53.782Z,0.66
2019-04-04T04:57:56.312Z,0.65
2019-04-04T04:58:55.494Z,0.62
2019-04-04T04:59:53.746Z,0.66
2019-04-04T05:00:53.840Z,0.68
2019-04-04T05:01:53.741Z,0.73
2019-04-04T05:02:53.818Z,0.76
2019-04-04T05:03:54.180Z,0.78
2019-04-04T05:04:53.694Z,0.83
2019-04-04T05:05:53.687Z,0.88
2019-04-04T05:06:53.680Z,0.94
2019-04-04T05:07:55.039Z,0.96
2019-04-04T05:08:53.682Z,0.97
2019-04-04T05:09:53.681Z,1.08
2019-04-04T05:10:53.635Z,1.11
2019-04-04T05:11:53.628Z,1.16
2019-04-04T05:12:53.786Z,1.16
2019-04-04T05:13:53.676Z,1.20
2019-04-04T05:14:53.587Z,1.33
2019-04-04T05:15:53.589Z,1.26
2019-04-04T05:16:53.566Z,1.32
2019-04-04T05:17:53.558Z,1.42
2019-04-04T05:18:53.547Z,1.33
2019-04-04T05:19:53.539Z,1.37
2019-04-04T05:20:53.567Z,1.47
2019-04-04T05:21:53.557Z,1.48
2019-04-04T05:22:53.513Z,1.45
2019-04-04T05:23:53.495Z,1.54
2019-04-04T05:25:08.247Z,1.50
2019-04-04T05:25:54.541Z,1.55
2019-04-04T05:26:53.499Z,1.58
2019-04-04T05:27:53.460Z,1.66
2019-04-04T05:28:53.457Z,1.69
2019-04-04T05:29:53.479Z,1.73
2019-04-04T05:30:53.440Z,1.70
2019-04-04T05:31:53.408Z,1.80
2019-04-04T05:32:56.413Z,1.88
2019-04-04T05:33:53.391Z,1.83
2019-04-04T05:34:53.411Z,1.88
2019-04-04T05:35:53.383Z,1.86
2019-04-04T05:36:54.200Z,2.02
2019-04-04T05:37:53.346Z,1.99
2019-04-04T05:38:53.342Z,2.10
2019-04-04T05:39:55.320Z,2.17
2019-04-04T05:40:55.441Z,2.07
2019-04-04T05:41:53.305Z,2.21
2019-04-04T05:42:53.339Z,2.21
2019-04-04T05:43:53.298Z,2.17
2019-04-04T05:44:53.301Z,2.23
2019-04-04T05:45:53.261Z,2.27
2019-04-04T05:46:53.263Z,2.21
2019-04-04T05:47:56.356Z,2.34
2019-04-04T05:48:54.225Z,2.43
2019-04-04T05:49:53.222Z,2.36
2019-04-04T05:50:53.224Z,2.41
2019-04-04T05:51:53.245Z,2.39
2019-04-04T05:52:53.192Z,2.39
2019-04-04T05:53:53.277Z,2.45
2019-04-04T05:54:53.166Z,2.54
2019-04-04T05:56:06.552Z,2.59
2019-04-04T05:56:53.142Z,2.57
2019-04-04T05:57:53.221Z,2.61
2019-04-04T05:58:53.719Z,2.57
2019-04-04T05:59:55.334Z,2.67
2019-04-04T06:00:53.097Z,2.67
2019-04-04T06:01:53.106Z,2.81
2019-04-04T06:02:53.078Z,2.75
2019-04-04T06:03:53.652Z,2.81
2019-04-04T06:04:55.425Z,2.82
2019-04-04T06:05:53.059Z,2.82
2019-04-04T06:06:55.464Z,2.85
2019-04-04T06:07:53.026Z,2.90
2019-04-04T06:08:53.032Z,2.85
2019-04-04T06:09:53.037Z,2.85
2019-04-04T06:10:53.011Z,2.93
2019-04-04T06:11:53.757Z,2.99
2019-04-04T06:12:54.356Z,3.05
2019-04-04T06:13:52.966Z,3.10
2019-04-04T06:14:53.039Z,3.02
2019-04-04T06:15:52.944Z,3.14
2019-04-04T06:16:52.997Z,3.23
2019-04-04T06:17:52.941Z,3.21
2019-04-04T06:18:52.925Z,3.29
2019-04-04T06:19:52.898Z,3.31
2019-04-04T06:20:52.890Z,3.39
2019-04-04T06:21:52.877Z,3.43
2019-04-04T06:22:52.926Z,3.50
2019-04-04T06:23:55.656Z,3.52
2019-04-04T06:24:52.844Z,3.57
2019-04-04T06:25:52.882Z,3.72
2019-04-04T06:27:03.753Z,3.98
2019-04-04T06:27:52.818Z,4.42
2019-04-04T06:28:52.812Z,4.63
2019-04-04T06:29:52.801Z,4.99
2019-04-04T06:30:54.219Z,5.10
2019-04-04T06:31:52.783Z,5.46
2019-04-04T06:32:52.768Z,5.74
2019-04-04T06:33:52.773Z,6.06
2019-04-04T06:34:52.762Z,6.11
2019-04-04T06:35:52.732Z,6.25
2019-04-04T06:36:52.748Z,6.40
2019-04-04T06:37:52.709Z,6.43
2019-04-04T06:38:53.947Z,6.51
2019-04-04T06:39:54.341Z,6.41
2019-04-04T06:40:52.690Z,6.28
2019-04-04T06:41:52.671Z,6.67
2019-04-04T06:42:52.665Z,7.06
2019-04-04T06:43:52.668Z,7.13
2019-04-04T06:44:54.193Z,7.28
2019-04-04T06:45:52.625Z,6.87
2019-04-04T06:46:53.481Z,6.94
2019-04-04T06:47:52.597Z,7.10
2019-04-04T06:48:52.620Z,7.13
2019-04-04T06:49:52.584Z,7.09
2019-04-04T06:50:52.596Z,7.07
2019-04-04T06:51:52.586Z,6.91
2019-04-04T06:52:52.551Z,7.13
2019-04-04T06:53:53.764Z,7.07
2019-04-04T06:54:52.528Z,7.07
2019-04-04T06:55:52.513Z,7.16
2019-04-04T06:56:52.546Z,7.23
2019-04-04T06:58:04.002Z,7.42
2019-04-04T06:58:52.483Z,7.49
2019-04-04T06:59:52.476Z,7.50
2019-04-04T07:00:52.495Z,7.71
2019-04-04T07:01:52.694Z,7.79
2019-04-04T07:02:55.230Z,7.79
2019-04-04T07:03:52.770Z,7.69
2019-04-04T07:04:52.422Z,7.79
2019-04-04T07:05:52.409Z,7.97
2019-04-04T07:06:52.446Z,8.29
2019-04-04T07:07:52.398Z,8.40
2019-04-04T07:08:52.380Z,8.28
2019-04-04T07:09:52.366Z,8.02
2019-04-04T07:10:57.788Z,8.37
2019-04-04T07:11:53.384Z,8.66
2019-04-04T07:13:05.937Z,8.40
2019-04-04T07:13:53.319Z,8.55
2019-04-04T07:14:52.326Z,8.70
2019-04-04T07:16:06.060Z,8.92
2019-04-04T07:16:53.391Z,8.68
2019-04-04T07:17:52.299Z,9.14
2019-04-04T07:18:52.267Z,9.24
2019-04-04T07:19:52.261Z,9.14
2019-04-04T07:20:52.248Z,9.31
2019-04-04T07:21:52.266Z,9.13
2019-04-04T07:22:55.624Z,9.15
2019-04-04T07:23:52.216Z,9.11
2019-04-04T07:24:52.208Z,9.02
2019-04-04T07:25:53.510Z,9.17
2019-04-04T07:26:52.210Z,9.15
2019-04-04T07:27:52.174Z,9.28
2019-04-04T07:29:03.131Z,9.50
2019-04-04T07:29:52.152Z,9.40
2019-04-04T07:30:54.453Z,9.71
2019-04-04T07:31:52.133Z,9.76
2019-04-04T07:32:52.135Z,9.72
2019-04-04T07:33:52.105Z,9.72
2019-04-04T07:34:52.110Z,9.81
2019-04-04T07:35:52.096Z,9.84
2019-04-04T07:36:52.079Z,10.02
2019-04-04T07:37:55.398Z,10.34
2019-04-04T07:38:53.060Z,10.38
2019-04-04T07:39:52.047Z,10.78
2019-04-04T07:40:52.095Z,10.51
2019-04-04T07:41:52.021Z,10.29
2019-04-04T07:42:52.008Z,10.36
2019-04-04T07:43:52.348Z,10.47
2019-04-04T07:44:54.376Z,10.64
2019-04-04T07:45:51.991Z,10.89
2019-04-04T07:46:51.974Z,10.36
2019-04-04T07:47:51.958Z,10.40
2019-04-04T07:48:52.348Z,10.55
2019-04-04T07:49:53.189Z,10.94
2019-04-04T07:50:51.920Z,10.53
2019-04-04T07:51:51.913Z,11.00
2019-04-04T07:52:51.897Z,10.94
2019-04-04T07:53:51.890Z,11.02
2019-04-04T07:54:51.910Z,11.42
2019-04-04T07:55:51.888Z,11.40
2019-04-04T07:56:52.618Z,11.37
2019-04-04T07:57:51.848Z,11.25
2019-04-04T07:58:51.837Z,11.40
2019-04-04T08:00:02.665Z,11.43
2019-04-04T08:00:51.819Z,11.55
2019-04-04T08:01:51.805Z,12.01
2019-04-04T08:02:51.796Z,12.21
2019-04-04T08:03:51.784Z,12.28
2019-04-04T08:04:51.771Z,12.24
2019-04-04T08:05:51.795Z,12.09
2019-04-04T08:06:51.776Z,11.69
2019-04-04T08:07:51.739Z,12.09
2019-04-04T08:08:51.729Z,11.57
2019-04-04T08:09:51.725Z,11.83
2019-04-04T08:10:51.709Z,11.95
2019-04-04T08:11:51.710Z,12.05
2019-04-04T08:12:51.694Z,12.17
2019-04-04T08:13:51.671Z,12.31
2019-04-04T08:14:51.689Z,12.23
2019-04-04T08:15:51.660Z,12.53
2019-04-04T08:16:51.667Z,12.34
2019-04-04T08:17:51.634Z,12.38
2019-04-04T08:18:51.619Z,12.62
2019-04-04T08:19:59.555Z,12.37
2019-04-04T08:20:52.604Z,12.42
2019-04-04T08:21:51.608Z,12.62
2019-04-04T08:22:51.634Z,12.34
2019-04-04T08:23:51.567Z,12.62
2019-04-04T08:24:51.559Z,12.47
2019-04-04T08:25:51.549Z,12.64
2019-04-04T08:26:51.538Z,12.77
2019-04-04T08:27:51.526Z,13.03
2019-04-04T08:28:51.519Z,12.85
2019-04-04T08:29:51.503Z,12.93
2019-04-04T08:31:01.892Z,12.97
2019-04-04T08:31:51.485Z,13.11
2019-04-04T08:32:51.475Z,12.79
2019-04-04T08:33:51.482Z,12.77
2019-04-04T08:34:51.447Z,13.03
2019-04-04T08:35:51.444Z,13.25
2019-04-04T08:36:51.430Z,13.19
2019-04-04T08:37:51.419Z,13.11
2019-04-04T08:38:51.419Z,13.41
2019-04-04T08:39:51.417Z,13.48
2019-04-04T08:40:51.410Z,13.52
2019-04-04T08:41:52.530Z,13.77
2019-04-04T08:42:51.539Z,14.03
2019-04-04T08:43:51.356Z,13.51
2019-04-04T08:44:51.385Z,13.45
2019-04-04T08:45:51.338Z,13.99
2019-04-04T08:46:51.325Z,14.17
2019-04-04T08:47:51.308Z,14.36
2019-04-04T08:48:51.318Z,14.86
2019-04-04T08:49:51.294Z,14.92
2019-04-04T08:50:51.335Z,15.36
2019-04-04T08:51:51.272Z,14.88
2019-04-04T08:52:51.258Z,14.88
2019-04-04T08:53:51.255Z,14.99
2019-04-04T08:54:51.233Z,15.27
2019-04-04T08:55:51.267Z,14.84
2019-04-04T08:56:51.224Z,14.69
2019-04-04T08:57:51.205Z,14.47
2019-04-04T08:58:51.779Z,14.15
2019-04-04T08:59:51.256Z,14.17
2019-04-04T09:00:51.187Z,14.43
2019-04-04T09:02:01.752Z,14.15
2019-04-04T09:02:51.156Z,14.95
2019-04-04T09:03:51.142Z,15.53
2019-04-04T09:04:51.132Z,15.53
2019-04-04T09:05:51.131Z,14.96
2019-04-04T09:06:51.147Z,14.94
2019-04-04T09:07:51.109Z,15.09
2019-04-04T09:08:51.141Z,15.38
2019-04-04T09:09:51.212Z,15.38
2019-04-04T09:10:51.066Z,15.38
2019-04-04T09:11:51.061Z,15.47
2019-04-04T09:12:51.108Z,15.11
2019-04-04T09:13:51.735Z,14.70
2019-04-04T09:14:51.027Z,15.14
2019-04-04T09:15:51.056Z,15.90
2019-04-04T09:16:51.007Z,16.38
2019-04-04T09:17:50.996Z,15.97
2019-04-04T09:18:51.039Z,15.89
2019-04-04T09:19:50.972Z,15.80
2019-04-04T09:20:50.993Z,15.27
2019-04-04T09:21:50.957Z,15.50
2019-04-04T09:22:50.945Z,15.60
2019-04-04T09:23:50.931Z,15.56
2019-04-04T09:24:50.962Z,15.34
2019-04-04T09:25:50.911Z,14.94
2019-04-04T09:26:50.912Z,15.19
2019-04-04T09:27:50.905Z,15.21
2019-04-04T09:28:50.879Z,14.72
2019-04-04T09:29:50.872Z,15.14
2019-04-04T09:30:50.957Z,14.96
2019-04-04T09:31:50.893Z,15.59
2019-04-04T09:33:01.557Z,16.20
2019-04-04T09:33:50.829Z,16.66
2019-04-04T09:34:50.831Z,16.50
2019-04-04T09:35:50.850Z,15.78
2019-04-04T09:36:50.796Z,15.28
2019-04-04T09:37:50.789Z,15.32
2019-04-04T09:38:50.781Z,16.11
2019-04-04T09:39:50.768Z,15.36
2019-04-04T09:40:50.760Z,15.75
2019-04-04T09:41:50.816Z,15.29
2019-04-04T09:42:50.741Z,15.39
2019-04-04T09:43:50.732Z,15.92
2019-04-04T09:44:50.719Z,16.73
2019-04-04T09:45:50.713Z,17.14
2019-04-04T09:46:50.706Z,17.26
2019-04-04T09:47:50.696Z,16.67
2019-04-04T09:48:50.676Z,15.67
2019-04-04T09:49:50.662Z,15.57
2019-04-04T09:50:50.662Z,15.64
2019-04-04T09:51:50.648Z,15.60
2019-04-04T09:52:50.672Z,15.84
2019-04-04T09:53:53.253Z,16.14
2019-04-04T09:54:50.626Z,16.75
2019-04-04T09:55:50.599Z,16.89
2019-04-04T09:56:50.596Z,16.39
2019-04-04T09:57:50.583Z,16.23
2019-04-04T09:58:50.609Z,16.46
2019-04-04T09:59:50.566Z,17.07
2019-04-04T10:00:50.554Z,17.74
2019-04-04T10:01:50.546Z,17.70
2019-04-04T10:02:50.530Z,17.11
2019-04-04T10:04:02.309Z,17.30
2019-04-04T10:04:50.530Z,16.83
2019-04-04T10:05:51.297Z,16.68
2019-04-04T10:06:50.493Z,16.14
2019-04-04T10:07:50.484Z,16.17
2019-04-04T10:08:51.263Z,16.63
2019-04-04T10:09:50.466Z,16.52
2019-04-04T10:10:50.451Z,16.08
2019-04-04T10:11:50.442Z,16.61
2019-04-04T10:12:50.429Z,16.41
2019-04-04T10:13:50.434Z,16.50
2019-04-04T10:14:50.417Z,16.39
2019-04-04T10:15:50.407Z,16.41
2019-04-04T10:16:50.400Z,16.70
2019-04-04T10:17:50.382Z,15.87
2019-04-04T10:18:50.366Z,16.43
2019-04-04T10:19:50.401Z,16.46
2019-04-04T10:20:50.386Z,16.38
2019-04-04T10:21:50.344Z,16.75
2019-04-04T10:22:50.334Z,16.71
2019-04-04T10:23:50.326Z,16.38
2019-04-04T10:24:50.316Z,16.24
2019-04-04T10:25:50.298Z,16.38
2019-04-04T10:26:50.313Z,16.52
2019-04-04T10:27:50.595Z,16.52
2019-04-04T10:28:50.276Z,16.56
2019-04-04T10:29:50.263Z,16.35
2019-04-04T10:30:50.248Z,16.05
2019-04-04T10:31:50.246Z,17.00
2019-04-04T10:32:50.280Z,17.36
2019-04-04T10:33:50.222Z,17.90
2019-04-04T10:35:00.206Z,17.62
2019-04-04T10:35:50.205Z,16.57
2019-04-04T10:36:50.195Z,16.30
2019-04-04T10:37:50.178Z,16.15
2019-04-04T10:38:50.186Z,17.03
2019-04-04T10:39:50.160Z,16.76
2019-04-04T10:40:50.150Z,16.81
2019-04-04T10:41:50.144Z,16.82
2019-04-04T10:42:50.134Z,16.70
2019-04-04T10:43:50.162Z,17.03
2019-04-04T10:44:50.111Z,16.91
2019-04-04T10:45:50.105Z,17.93
2019-04-04T10:46:50.090Z,17.06
2019-04-04T10:47:50.101Z,17.33
2019-04-04T10:48:50.075Z,17.14
2019-04-04T10:49:50.300Z,16.49
2019-04-04T10:50:50.068Z,17.14
2019-04-04T10:51:50.042Z,17.31
2019-04-04T10:52:50.032Z,17.14
2019-04-04T10:53:50.033Z,17.44
2019-04-04T10:54:50.066Z,17.36
2019-04-04T10:55:50.009Z,17.33
2019-04-04T10:56:49.996Z,17.36
2019-04-04T10:57:49.985Z,17.70
2019-04-04T10:58:49.977Z,16.88
2019-04-04T10:59:49.967Z,16.85
2019-04-04T11:00:49.994Z,16.96
2019-04-04T11:01:49.988Z,17.07
2019-04-04T11:02:49.946Z,16.94
2019-04-04T11:03:49.925Z,16.88
2019-04-04T11:04:49.934Z,16.73
2019-04-04T11:06:02.372Z,17.03
2019-04-04T11:06:49.913Z,17.51
2019-04-04T11:07:49.890Z,18.11
2019-04-04T11:08:49.881Z,18.50
2019-04-04T11:09:49.869Z,18.52
2019-04-04T11:10:50.344Z,18.41
2019-04-04T11:11:49.857Z,18.94
2019-04-04T11:12:49.845Z,18.55
2019-04-04T11:13:49.827Z,17.34
2019-04-04T11:14:49.832Z,17.01
2019-04-04T11:15:49.843Z,16.68
2019-04-04T11:16:49.798Z,16.89
2019-04-04T11:17:49.790Z,16.88
2019-04-04T11:18:49.782Z,17.14
2019-04-04T11:19:49.770Z,16.96
2019-04-04T11:20:49.766Z,17.33
2019-04-04T11:21:49.828Z,17.77
2019-04-04T11:22:49.740Z,18.03
2019-04-04T11:23:49.733Z,17.97
2019-04-04T11:24:49.724Z,17.52
2019-04-04T11:25:49.716Z,17.36
2019-04-04T11:26:49.711Z,17.54
2019-04-04T11:27:49.704Z,17.15
2019-04-04T11:28:49.689Z,17.19
2019-04-04T11:29:49.680Z,17.86
2019-04-04T11:30:49.662Z,18.35
2019-04-04T11:31:49.676Z,18.69
2019-04-04T11:32:49.646Z,18.11
2019-04-04T11:33:49.633Z,18.02
2019-04-04T11:34:53.265Z,17.31
2019-04-04T11:35:49.614Z,17.26
2019-04-04T11:36:59.891Z,17.51
2019-04-04T11:37:49.595Z,17.99
2019-04-04T11:38:49.592Z,18.21
2019-04-04T11:39:54.745Z,17.90
2019-04-04T11:40:50.570Z,17.77
2019-04-04T11:41:49.557Z,17.87
2019-04-04T11:42:49.582Z,18.14
2019-04-04T11:43:49.544Z,18.17
2019-04-04T11:44:49.529Z,18.57
2019-04-04T11:45:49.523Z,17.99
2019-04-04T11:46:49.514Z,17.36
2019-04-04T11:47:49.497Z,17.11
2019-04-04T11:48:49.502Z,17.26
2019-04-04T11:49:49.485Z,17.34
2019-04-04T11:50:49.473Z,17.31
2019-04-04T11:51:49.464Z,16.66
2019-04-04T11:52:49.457Z,17.00
2019-04-04T11:53:49.450Z,17.08
2019-04-04T11:54:49.430Z,17.68
2019-04-04T11:55:49.426Z,17.15
2019-04-04T11:56:49.410Z,17.08
2019-04-04T11:57:49.408Z,17.36
2019-04-04T11:58:49.437Z,17.62
2019-04-04T11:59:49.380Z,18.30
2019-04-04T12:00:49.373Z,18.47
2019-04-04T12:01:49.360Z,18.14
2019-04-04T12:02:49.356Z,17.48
2019-04-04T12:03:49.351Z,17.90
2019-04-04T12:04:49.351Z,18.02
2019-04-04T12:05:49.330Z,18.51
2019-04-04T12:06:49.315Z,19.21
2019-04-04T12:07:59.560Z,19.28
2019-04-04T12:08:49.302Z,18.65
2019-04-04T12:09:49.286Z,17.70
2019-04-04T12:10:49.313Z,17.54
2019-04-04T12:11:49.266Z,18.05
2019-04-04T12:12:49.259Z,17.87
2019-04-04T12:13:50.521Z,18.10
2019-04-04T12:14:49.237Z,18.48
2019-04-04T12:15:49.229Z,18.88
2019-04-04T12:16:49.232Z,18.48
2019-04-04T12:17:49.209Z,18.23
2019-04-04T12:18:49.197Z,17.79
2019-04-04T12:19:49.186Z,18.45
2019-04-04T12:20:49.181Z,18.50
2019-04-04T12:21:49.172Z,17.33
2019-04-04T12:22:49.163Z,17.36
2019-04-04T12:23:51.408Z,17.33
2019-04-04T12:24:49.139Z,16.83
2019-04-04T12:25:49.126Z,17.54
2019-04-04T12:26:49.158Z,17.48
2019-04-04T12:27:49.106Z,18.18
2019-04-04T12:28:49.095Z,18.72
2019-04-04T12:29:49.094Z,18.80
2019-04-04T12:30:49.076Z,19.07
2019-04-04T12:31:49.073Z,19.51
2019-04-04T12:32:49.075Z,19.95
2019-04-04T12:33:49.052Z,19.37
2019-04-04T12:34:49.038Z,18.90
2019-04-04T12:35:49.030Z,18.67
2019-04-04T12:36:49.016Z,18.44
2019-04-04T12:37:49.016Z,18.11
2019-04-04T12:38:59.952Z,18.90
2019-04-04T12:39:48.991Z,18.62
2019-04-04T12:40:48.989Z,18.27
2019-04-04T12:41:48.971Z,18.62
2019-04-04T12:42:48.961Z,18.76
2019-04-04T12:43:48.945Z,17.96
2019-04-04T12:44:48.946Z,17.52
2019-04-04T12:45:48.929Z,17.34
2019-04-04T12:46:48.923Z,17.06
2019-04-04T12:47:48.912Z,17.64
2019-04-04T12:48:48.904Z,17.92
2019-04-04T12:49:48.932Z,18.45
2019-04-04T12:50:48.881Z,18.51
2019-04-04T12:51:48.871Z,17.72
2019-04-04T12:52:48.858Z,17.71
2019-04-04T12:53:48.891Z,17.87
2019-04-04T12:54:48.835Z,18.23
2019-04-04T12:55:48.834Z,17.87
2019-04-04T12:56:48.827Z,18.35
2019-04-04T12:57:48.806Z,18.10
2019-04-04T12:58:48.795Z,18.07